createdAt,value
2018-08-24T00:01:56.374Z,21.10
2018-08-24T00:04:23.807Z,20.77
2018-08-24T00:06:51.299Z,20.23
2018-08-24T00:09:25.936Z,20.77
2018-08-24T00:11:53.422Z,23.20
2018-08-24T00:14:20.819Z,21.73
2018-08-24T00:16:48.313Z,22.37
2018-08-24T00:19:16.485Z,24.63
2018-08-24T00:21:44.578Z,23.77
2018-08-24T00:24:13.432Z,25.17
2018-08-24T00:26:40.850Z,25.03
2018-08-24T00:29:08.658Z,24.03
2018-08-24T00:31:36.745Z,23.70
2018-08-24T00:34:04.164Z,25.23
2018-08-24T00:36:31.608Z,23.50
2018-08-24T00:38:59.126Z,26.20
2018-08-24T00:41:26.579Z,27.77
2018-08-24T00:43:53.977Z,25.03
2018-08-24T00:46:22.205Z,26.37
2018-08-24T00:48:49.603Z,25.33
2018-08-24T00:51:17.039Z,25.70
2018-08-24T00:53:44.432Z,24.63
2018-08-24T00:56:12.343Z,26.27
2018-08-24T00:58:39.976Z,25.33
2018-08-24T01:01:07.751Z,25.90
2018-08-24T01:03:35.595Z,27.63
2018-08-24T01:06:03.188Z,27.90
2018-08-24T01:08:30.610Z,28.50
2018-08-24T01:10:58.075Z,27.57
2018-08-24T01:13:25.456Z,27.87
2018-08-24T01:15:59.048Z,28.93
2018-08-24T01:18:32.135Z,26.10
2018-08-24T01:20:59.763Z,26.67
2018-08-24T01:23:28.474Z,23.10
2018-08-24T01:25:55.920Z,21.40
2018-08-24T01:28:23.911Z,22.40
2018-08-24T01:30:52.570Z,23.77
2018-08-24T01:33:19.965Z,24.70
2018-08-24T01:35:48.031Z,25.90
2018-08-24T01:38:15.425Z,26.03
2018-08-24T01:40:42.845Z,25.67
2018-08-24T01:43:10.585Z,27.17
2018-08-24T01:45:38.118Z,27.53
2018-08-24T01:48:05.893Z,24.93
2018-08-24T01:50:33.574Z,28.60
2018-08-24T01:53:01.001Z,26.70
2018-08-24T01:55:28.426Z,26.73
2018-08-24T01:57:56.483Z,26.40
2018-08-24T02:00:24.120Z,24.13
2018-08-24T02:02:54.095Z,25.40
2018-08-24T02:05:21.878Z,27.57
2018-08-24T02:07:49.287Z,26.07
2018-08-24T02:10:22.446Z,32.43
2018-08-24T02:12:55.521Z,33.63
2018-08-24T02:15:22.944Z,34.13
2018-08-24T02:17:55.978Z,33.90
2018-08-24T02:20:29.068Z,33.83
2018-08-24T02:23:00.507Z,36.53
2018-08-24T02:25:28.066Z,36.53
2018-08-24T02:27:55.538Z,33.80
2018-08-24T02:30:22.978Z,35.03
2018-08-24T02:32:50.538Z,33.20
2018-08-24T02:35:19.713Z,34.43
2018-08-24T02:37:48.915Z,31.33
2018-08-24T02:40:16.483Z,32.73
2018-08-24T02:42:44.561Z,31.07
2018-08-24T02:45:12.086Z,33.20
2018-08-24T02:47:39.420Z,31.23
2018-08-24T02:50:06.864Z,29.33
2018-08-24T02:52:34.302Z,30.97
2018-08-24T02:55:01.737Z,31.00
2018-08-24T02:57:29.143Z,29.80
2018-08-24T02:59:56.763Z,31.37
2018-08-24T03:02:24.140Z,28.83
2018-08-24T03:04:51.557Z,30.70
2018-08-24T03:07:19.067Z,30.73
2018-08-24T03:09:46.468Z,29.73
2018-08-24T03:12:13.883Z,31.03
2018-08-24T03:14:41.280Z,30.03
2018-08-24T03:17:14.438Z,30.10
2018-08-24T03:19:41.836Z,30.73
2018-08-24T03:22:09.243Z,29.33
2018-08-24T03:24:36.635Z,29.93
2018-08-24T03:27:04.068Z,30.53
2018-08-24T03:29:31.455Z,30.07
2018-08-24T03:31:58.913Z,30.00
2018-08-24T03:34:26.301Z,30.47
2018-08-24T03:36:53.743Z,29.97
2018-08-24T03:39:21.168Z,29.97
2018-08-24T03:41:48.851Z,27.87
2018-08-24T03:44:16.230Z,27.83
2018-08-24T03:46:43.654Z,28.20
2018-08-24T03:49:11.041Z,29.00
2018-08-24T03:51:38.496Z,29.87
2018-08-24T03:54:13.174Z,30.23
2018-08-24T03:56:40.899Z,29.63
2018-08-24T03:59:08.286Z,32.07
2018-08-24T04:01:35.767Z,30.73
2018-08-24T04:04:03.397Z,31.47
2018-08-24T04:06:30.822Z,32.10
2018-08-24T04:08:58.224Z,30.57
2018-08-24T04:11:25.636Z,29.50
2018-08-24T04:13:53.022Z,29.37
2018-08-24T04:16:20.432Z,31.03
2018-08-24T04:18:47.842Z,30.80
2018-08-24T04:21:15.263Z,28.93
2018-08-24T04:23:42.664Z,31.43
2018-08-24T04:26:10.243Z,29.93
2018-08-24T04:28:37.575Z,31.03
2018-08-24T04:31:04.982Z,32.47
2018-08-24T04:33:32.397Z,31.90
2018-08-24T04:35:59.787Z,33.40
2018-08-24T04:38:27.220Z,31.87
2018-08-24T04:40:54.644Z,31.37
2018-08-24T04:43:22.111Z,31.90
2018-08-24T04:45:49.518Z,30.27
2018-08-24T04:48:16.964Z,31.03
2018-08-24T04:50:44.366Z,30.50
2018-08-24T04:53:11.774Z,33.87
2018-08-24T04:55:39.171Z,31.80
2018-08-24T04:58:06.611Z,31.47
2018-08-24T05:00:34.102Z,32.17
2018-08-24T05:03:01.596Z,31.00
2018-08-24T05:05:28.987Z,30.73
2018-08-24T05:07:56.374Z,30.77
2018-08-24T05:10:23.774Z,30.70
2018-08-24T05:12:51.203Z,30.20
2018-08-24T05:15:18.590Z,30.83
2018-08-24T05:17:46.023Z,33.33
2018-08-24T05:20:13.437Z,30.77
2018-08-24T05:22:40.829Z,34.80
2018-08-24T05:25:08.177Z,34.07
2018-08-24T05:27:35.588Z,34.63
2018-08-24T05:30:03.145Z,32.20
2018-08-24T05:32:30.586Z,33.77
2018-08-24T05:34:57.933Z,32.73
2018-08-24T05:37:25.315Z,32.27
2018-08-24T05:39:52.741Z,34.23
2018-08-24T05:42:20.181Z,33.10
2018-08-24T05:44:47.580Z,33.53
2018-08-24T05:47:14.994Z,31.33
2018-08-24T05:49:42.373Z,30.17
2018-08-24T05:52:09.867Z,31.60
2018-08-24T05:54:37.283Z,31.97
2018-08-24T05:57:04.706Z,32.23
2018-08-24T05:59:32.127Z,31.20
2018-08-24T06:01:59.801Z,31.13
2018-08-24T06:04:27.223Z,30.27
2018-08-24T06:06:55.420Z,30.13
2018-08-24T06:09:22.881Z,31.40
2018-08-24T06:11:50.359Z,30.90
2018-08-24T06:14:17.759Z,31.87
2018-08-24T06:16:49.853Z,30.60
2018-08-24T06:19:17.920Z,28.73
2018-08-24T06:21:45.347Z,29.27
2018-08-24T06:24:13.318Z,25.93
2018-08-24T06:26:40.815Z,23.43
2018-08-24T06:29:08.278Z,18.17
2018-08-24T06:31:35.725Z,30.57
2018-08-24T06:34:03.166Z,16.67
2018-08-24T06:36:30.589Z,8.93
2018-08-24T06:38:57.991Z,8.40
2018-08-24T06:41:25.404Z,7.80
2018-08-24T06:43:52.800Z,6.50
2018-08-24T06:46:20.215Z,6.23
2018-08-24T06:48:47.663Z,7.90
2018-08-24T06:51:15.405Z,6.23
2018-08-24T06:53:43.239Z,6.20
2018-08-24T06:56:10.596Z,6.60
2018-08-24T06:58:38.032Z,5.90
2018-08-24T07:01:05.553Z,5.93
2018-08-24T07:03:32.919Z,6.37
2018-08-24T07:06:00.422Z,6.00
2018-08-24T07:08:27.838Z,5.83
2018-08-24T07:10:55.254Z,6.07
2018-08-24T07:13:22.676Z,5.10
2018-08-24T07:15:50.119Z,5.50
2018-08-24T07:18:17.636Z,6.10
2018-08-24T07:20:45.023Z,5.47
2018-08-24T07:23:12.431Z,5.93
2018-08-24T07:25:39.852Z,6.30
2018-08-24T07:28:07.327Z,6.40
2018-08-24T07:30:34.780Z,6.00
2018-08-24T07:33:02.203Z,8.40
2018-08-24T07:35:29.604Z,6.80
2018-08-24T07:37:57.047Z,6.13
2018-08-24T07:40:24.460Z,6.80
2018-08-24T07:42:51.889Z,6.57
2018-08-24T07:45:19.283Z,6.63
2018-08-24T07:47:46.704Z,6.50
2018-08-24T07:50:14.143Z,7.23
2018-08-24T07:52:41.570Z,8.10
2018-08-24T07:55:13.179Z,7.50
2018-08-24T07:57:40.591Z,7.40
2018-08-24T08:00:08.359Z,7.27
2018-08-24T08:02:41.720Z,5.80
2018-08-24T08:05:09.118Z,5.10
2018-08-24T08:07:36.565Z,4.80
2018-08-24T08:10:04.041Z,5.37
2018-08-24T08:12:31.468Z,4.73
2018-08-24T08:15:04.681Z,4.00
2018-08-24T08:17:32.112Z,3.80
2018-08-24T08:19:59.528Z,3.50
2018-08-24T08:22:26.951Z,3.07
2018-08-24T08:24:54.331Z,2.50
2018-08-24T08:27:21.767Z,3.30
2018-08-24T08:29:54.910Z,7.30
2018-08-24T08:32:22.319Z,2.60
2018-08-24T08:34:50.766Z,3.93
2018-08-24T08:37:18.538Z,3.83
2018-08-24T08:39:45.931Z,4.23
2018-08-24T08:42:13.389Z,5.17
2018-08-24T08:44:40.796Z,2.90
2018-08-24T08:47:08.363Z,4.20
2018-08-24T08:49:36.015Z,3.70
2018-08-24T08:52:03.455Z,3.03
2018-08-24T08:54:30.835Z,3.97
2018-08-24T08:56:58.281Z,4.00
2018-08-24T08:59:25.838Z,6.03
2018-08-24T09:01:53.403Z,5.10
2018-08-24T09:04:20.870Z,2.80
2018-08-24T09:06:48.267Z,3.97
2018-08-24T09:09:15.671Z,5.70
2018-08-24T09:11:43.069Z,3.20
2018-08-24T09:14:10.496Z,5.87
2018-08-24T09:16:37.893Z,5.53
2018-08-24T09:19:11.045Z,3.77
2018-08-24T09:21:44.178Z,7.00
2018-08-24T09:25:18.284Z,4.90
2018-08-24T09:27:52.191Z,3.73
2018-08-24T09:30:20.246Z,3.50
2018-08-24T09:32:47.693Z,5.13
2018-08-24T09:35:15.178Z,3.90
2018-08-24T09:37:42.613Z,5.50
2018-08-24T09:40:10.019Z,4.63
2018-08-24T09:42:37.435Z,6.50
2018-08-24T09:45:05.127Z,3.40
2018-08-24T09:47:38.331Z,4.00
2018-08-24T09:50:12.181Z,5.30
2018-08-24T09:52:39.756Z,6.30
2018-08-24T09:55:07.373Z,4.60
2018-08-24T09:57:34.759Z,4.57
2018-08-24T10:00:02.265Z,5.93
2018-08-24T10:02:35.429Z,5.73
2018-08-24T10:05:08.753Z,4.63
2018-08-24T10:07:41.914Z,4.80
2018-08-24T10:10:09.323Z,5.90
2018-08-24T10:12:37.685Z,6.13
2018-08-24T10:15:07.112Z,6.37
2018-08-24T10:17:34.519Z,8.13
2018-08-24T10:20:02.027Z,5.60
2018-08-24T10:22:29.660Z,7.47
2018-08-24T10:24:57.103Z,7.47
2018-08-24T10:27:24.483Z,6.70
2018-08-24T10:29:51.982Z,7.63
2018-08-24T10:32:19.332Z,6.67
2018-08-24T10:34:46.844Z,7.57
2018-08-24T10:37:14.243Z,8.97
2018-08-24T10:39:41.665Z,8.00
2018-08-24T10:42:09.060Z,7.10
2018-08-24T10:44:36.515Z,5.90
2018-08-24T10:47:04.150Z,6.70
2018-08-24T10:49:31.664Z,6.63
2018-08-24T10:51:59.008Z,6.77
2018-08-24T10:54:26.464Z,7.03
2018-08-24T10:56:53.952Z,7.23
2018-08-24T10:59:21.429Z,11.40
2018-08-24T11:01:48.854Z,8.30
2018-08-24T11:04:16.277Z,9.90
2018-08-24T11:06:43.671Z,7.73
2018-08-24T11:09:11.340Z,8.50
2018-08-24T11:11:38.869Z,8.10
2018-08-24T11:14:06.556Z,8.60
2018-08-24T11:16:33.946Z,9.03
2018-08-24T11:19:01.652Z,11.87
2018-08-24T11:21:29.130Z,8.70
2018-08-24T11:23:56.527Z,10.47
2018-08-24T11:26:23.957Z,11.43
2018-08-24T11:28:51.398Z,9.57
2018-08-24T11:31:18.839Z,9.77
2018-08-24T11:33:46.231Z,10.13
2018-08-24T11:36:13.917Z,9.77
2018-08-24T11:38:41.375Z,9.50
2018-08-24T11:41:09.007Z,10.50
2018-08-24T11:43:36.411Z,9.43
2018-08-24T11:46:03.870Z,9.70
2018-08-24T11:48:31.285Z,12.53
2018-08-24T11:50:59.547Z,9.33
2018-08-24T11:53:26.962Z,10.17
2018-08-24T11:55:54.398Z,9.70
2018-08-24T11:58:21.898Z,9.80
2018-08-24T12:00:49.336Z,9.50
2018-08-24T12:03:16.759Z,10.07
2018-08-24T12:05:44.173Z,10.13
2018-08-24T12:08:11.647Z,9.13
2018-08-24T12:10:39.002Z,9.30
2018-08-24T12:13:06.410Z,8.83
2018-08-24T12:15:33.844Z,9.00
2018-08-24T12:18:01.264Z,8.00
2018-08-24T12:20:28.680Z,8.50
2018-08-24T12:22:56.110Z,8.97
2018-08-24T12:25:23.532Z,9.37
2018-08-24T12:27:50.922Z,9.00
2018-08-24T12:30:18.377Z,10.57
2018-08-24T12:32:45.760Z,9.23
2018-08-24T12:35:13.178Z,8.47
2018-08-24T12:37:42.634Z,8.80
2018-08-24T12:40:10.095Z,9.43
2018-08-24T12:42:37.485Z,8.73
2018-08-24T12:45:04.979Z,8.70
2018-08-24T12:47:32.466Z,7.77
2018-08-24T12:49:59.895Z,9.20
2018-08-24T12:52:27.291Z,8.17
2018-08-24T12:54:54.707Z,11.60
2018-08-24T12:57:25.980Z,9.10
2018-08-24T12:59:53.457Z,7.93
2018-08-24T13:02:20.932Z,8.80
2018-08-24T13:04:48.332Z,8.33
2018-08-24T13:07:15.797Z,7.63
2018-08-24T13:09:43.175Z,8.40
2018-08-24T13:12:10.812Z,7.63
2018-08-24T13:14:38.259Z,7.37
2018-08-24T13:17:05.712Z,7.07
2018-08-24T13:19:33.092Z,8.83
2018-08-24T13:22:00.506Z,8.40
2018-08-24T13:24:27.901Z,8.07
2018-08-24T13:26:55.345Z,6.13
2018-08-24T13:29:22.736Z,6.77
2018-08-24T13:31:50.154Z,5.80
2018-08-24T13:34:17.559Z,6.00
2018-08-24T13:36:44.970Z,7.00
2018-08-24T13:39:12.459Z,6.60
2018-08-24T13:41:39.881Z,5.37
2018-08-24T13:44:07.281Z,5.30
2018-08-24T13:46:34.744Z,5.73
2018-08-24T13:49:02.336Z,4.83
2018-08-24T13:51:29.757Z,5.20
2018-08-24T13:53:57.207Z,5.20
2018-08-24T13:56:24.720Z,5.07
2018-08-24T13:58:52.143Z,5.47
2018-08-24T14:01:19.735Z,5.27
2018-08-24T14:03:47.196Z,5.37
2018-08-24T14:06:14.626Z,5.30
2018-08-24T14:08:42.011Z,9.00
2018-08-24T14:11:09.451Z,4.60
2018-08-24T14:13:36.963Z,5.20
2018-08-24T14:16:04.372Z,5.50
2018-08-24T14:18:31.849Z,5.57
2018-08-24T14:20:59.287Z,5.20
2018-08-24T14:23:26.709Z,5.27
2018-08-24T14:25:54.097Z,4.77
2018-08-24T14:28:21.531Z,4.87
2018-08-24T14:30:48.959Z,7.43
2018-08-24T14:33:16.568Z,3.73
2018-08-24T14:35:43.961Z,4.43
2018-08-24T14:38:11.737Z,4.37
2018-08-24T14:40:39.100Z,3.73
2018-08-24T14:43:06.823Z,3.83
2018-08-24T14:45:34.698Z,3.20
2018-08-24T14:48:02.276Z,3.03
2018-08-24T14:50:29.683Z,3.57
2018-08-24T14:52:57.103Z,4.57
2018-08-24T14:55:24.485Z,3.27
2018-08-24T14:57:51.943Z,3.60
2018-08-24T15:00:19.346Z,2.60
2018-08-24T15:02:46.792Z,2.40
2018-08-24T15:05:14.188Z,3.97
2018-08-24T15:07:41.595Z,3.00
2018-08-24T15:10:10.185Z,4.53
2018-08-24T15:12:37.922Z,2.90
2018-08-24T15:15:05.585Z,3.63
2018-08-24T15:17:33.028Z,4.60
2018-08-24T15:20:02.031Z,5.63
2018-08-24T15:22:29.455Z,3.10
2018-08-24T15:24:56.858Z,4.87
2018-08-24T15:27:24.276Z,4.03
2018-08-24T15:29:51.714Z,5.50
2018-08-24T15:32:19.167Z,7.40
2018-08-24T15:34:46.584Z,5.47
2018-08-24T15:37:14.047Z,9.90
2018-08-24T15:39:41.429Z,7.27
2018-08-24T15:42:08.888Z,3.17
2018-08-24T15:44:36.273Z,2.60
2018-08-24T15:47:03.833Z,3.77
2018-08-24T15:49:31.237Z,3.87
2018-08-24T15:51:58.624Z,3.57
2018-08-24T15:54:26.469Z,4.00
2018-08-24T15:56:53.976Z,2.40
2018-08-24T15:59:21.403Z,3.97
2018-08-24T16:01:48.810Z,3.50
2018-08-24T16:04:16.280Z,3.93
2018-08-24T16:06:43.704Z,4.30
2018-08-24T16:09:11.481Z,3.87
2018-08-24T16:11:39.220Z,3.37
2018-08-24T16:14:06.656Z,4.90
2018-08-24T16:16:34.124Z,2.63
2018-08-24T16:19:01.843Z,4.77
2018-08-24T16:21:29.284Z,3.40
2018-08-24T16:23:56.701Z,4.87
2018-08-24T16:26:24.982Z,3.43
2018-08-24T16:28:52.751Z,2.77
2018-08-24T16:31:20.175Z,3.17
2018-08-24T16:33:47.614Z,2.53
2018-08-24T16:36:15.303Z,1.97
2018-08-24T16:38:42.752Z,4.13
2018-08-24T16:41:10.220Z,3.80
2018-08-24T16:43:37.647Z,5.80
2018-08-24T16:46:05.059Z,2.40
2018-08-24T16:48:32.493Z,2.07
2018-08-24T16:50:59.958Z,4.00
2018-08-24T16:53:27.365Z,5.10
2018-08-24T16:55:54.754Z,4.27
2018-08-24T16:58:22.231Z,2.40
2018-08-24T17:00:49.642Z,3.07
2018-08-24T17:03:17.069Z,4.10
2018-08-24T17:05:44.505Z,3.60
2018-08-24T17:08:11.919Z,3.43
2018-08-24T17:10:39.297Z,4.30
2018-08-24T17:13:06.711Z,3.60
2018-08-24T17:15:34.117Z,2.07
2018-08-24T17:18:01.561Z,1.77
2018-08-24T17:20:28.956Z,5.00
2018-08-24T17:22:56.421Z,3.00
2018-08-24T17:25:24.037Z,2.73
2018-08-24T17:27:51.471Z,5.17
2018-08-24T17:30:18.932Z,3.20
2018-08-24T17:32:46.395Z,3.07
2018-08-24T17:35:13.793Z,3.00
2018-08-24T17:37:41.216Z,5.77
2018-08-24T17:40:08.778Z,2.50
2018-08-24T17:42:36.337Z,4.90
2018-08-24T17:45:03.799Z,2.50
2018-08-24T17:47:31.227Z,2.87
2018-08-24T17:49:58.620Z,2.60
2018-08-24T17:52:26.065Z,2.87
2018-08-24T17:54:54.107Z,2.87
2018-08-24T17:57:21.528Z,5.73
2018-08-24T17:59:48.978Z,2.03
2018-08-24T18:02:16.506Z,3.87
2018-08-24T18:04:44.764Z,2.90
2018-08-24T18:07:12.193Z,3.03
2018-08-24T18:09:39.584Z,2.37
2018-08-24T18:12:07.317Z,2.57
2018-08-24T18:14:34.808Z,3.30
2018-08-24T18:17:02.375Z,3.07
2018-08-24T18:19:29.810Z,4.83
2018-08-24T18:21:57.259Z,3.97
2018-08-24T18:24:24.740Z,4.47
2018-08-24T18:26:52.182Z,5.93
2018-08-24T18:29:19.631Z,3.87
2018-08-24T18:31:47.044Z,4.30
2018-08-24T18:34:14.455Z,5.53
2018-08-24T18:36:42.008Z,4.23
2018-08-24T18:39:11.007Z,4.10
2018-08-24T18:41:38.419Z,4.10
2018-08-24T18:44:06.023Z,3.80
2018-08-24T18:46:33.451Z,2.77
2018-08-24T18:49:01.012Z,4.63
2018-08-24T18:51:28.411Z,4.50
2018-08-24T18:53:55.952Z,4.43
2018-08-24T18:56:23.357Z,2.70
2018-08-24T18:58:50.807Z,5.10
2018-08-24T19:01:18.199Z,2.70
2018-08-24T19:03:45.689Z,4.70
2018-08-24T19:06:13.072Z,4.10
2018-08-24T19:08:40.530Z,3.10
2018-08-24T19:11:13.740Z,4.07
2018-08-24T19:13:41.237Z,4.50
2018-08-24T19:16:08.636Z,5.23
2018-08-24T19:18:41.993Z,3.83
2018-08-24T19:21:15.165Z,3.80
2018-08-24T19:23:44.520Z,5.60
2018-08-24T19:26:11.919Z,4.00
2018-08-24T19:28:45.188Z,4.90
2018-08-24T19:31:12.668Z,5.27
2018-08-24T19:33:40.163Z,3.17
2018-08-24T19:36:07.550Z,2.93
2018-08-24T19:38:35.019Z,2.23
2018-08-24T19:41:08.255Z,4.70
2018-08-24T19:43:35.728Z,4.17
2018-08-24T19:46:03.153Z,2.13
2018-08-24T19:48:36.503Z,4.00
2018-08-24T19:51:03.945Z,5.03
2018-08-24T19:53:31.376Z,4.47
2018-08-24T19:55:58.783Z,4.50
2018-08-24T19:58:31.920Z,4.53
2018-08-24T20:00:59.313Z,4.00
2018-08-24T20:03:26.812Z,1.97
2018-08-24T20:05:59.951Z,3.97
2018-08-24T20:08:33.211Z,2.03
2018-08-24T20:11:00.615Z,4.23
2018-08-24T20:13:28.045Z,1.93
2018-08-24T20:16:01.096Z,2.70
2018-08-24T20:18:28.561Z,2.33
2018-08-24T20:20:55.973Z,3.27
2018-08-24T20:23:23.409Z,3.03
2018-08-24T20:25:50.801Z,5.30
2018-08-24T20:28:18.210Z,3.77
2018-08-24T20:30:45.607Z,2.37
2018-08-24T20:33:13.033Z,3.83
2018-08-24T20:35:40.411Z,3.00
2018-08-24T20:38:07.843Z,3.33
2018-08-24T20:40:35.237Z,2.53
2018-08-24T20:43:02.623Z,5.33
2018-08-24T20:45:30.048Z,4.37
2018-08-24T20:47:57.472Z,2.17
2018-08-24T20:50:24.875Z,3.00
2018-08-24T20:52:52.331Z,3.47
2018-08-24T20:55:19.750Z,3.87
2018-08-24T20:57:47.160Z,2.93
2018-08-24T21:00:14.904Z,3.67
2018-08-24T21:02:42.336Z,4.07
2018-08-24T21:05:09.722Z,3.23
2018-08-24T21:07:37.148Z,1.80
2018-08-24T21:10:04.628Z,4.27
2018-08-24T21:12:32.061Z,5.80
2018-08-24T21:14:59.497Z,4.53
2018-08-24T21:17:26.997Z,3.57
2018-08-24T21:19:54.394Z,8.13
2018-08-24T21:22:21.825Z,4.23
2018-08-24T21:24:49.298Z,2.17
2018-08-24T21:27:16.822Z,3.17
2018-08-24T21:29:44.234Z,2.20
2018-08-24T21:32:11.666Z,2.57
2018-08-24T21:34:39.074Z,2.07
2018-08-24T21:37:06.459Z,2.50
2018-08-24T21:39:33.883Z,2.77
2018-08-24T21:42:01.329Z,4.10
2018-08-24T21:44:28.698Z,3.83
2018-08-24T21:46:56.170Z,3.93
2018-08-24T21:49:23.595Z,2.13
2018-08-24T21:51:51.252Z,1.70
2018-08-24T21:54:18.658Z,2.10
2018-08-24T21:56:46.044Z,2.90
2018-08-24T21:59:13.480Z,2.87
2018-08-24T22:01:40.973Z,1.57
2018-08-24T22:04:08.388Z,2.03
2018-08-24T22:06:35.801Z,3.10
2018-08-24T22:09:05.251Z,1.43
2018-08-24T22:11:32.647Z,2.00
2018-08-24T22:14:00.136Z,2.87
2018-08-24T22:16:27.539Z,2.27
2018-08-24T22:18:54.962Z,1.63
2018-08-24T22:21:22.363Z,3.60
2018-08-24T22:23:49.784Z,3.80
2018-08-24T22:26:17.188Z,3.20
2018-08-24T22:28:44.635Z,2.20
2018-08-24T22:31:12.045Z,1.70
2018-08-24T22:33:39.454Z,2.90
2018-08-24T22:36:06.876Z,2.83
2018-08-24T22:38:34.288Z,2.07
2018-08-24T22:41:01.700Z,1.50
2018-08-24T22:43:34.217Z,2.53
2018-08-24T22:46:01.640Z,1.70
2018-08-24T22:48:29.088Z,2.10
2018-08-24T22:50:56.485Z,2.00
2018-08-24T22:53:23.904Z,2.33
2018-08-24T22:55:51.342Z,1.93
2018-08-24T22:58:18.720Z,2.53
2018-08-24T23:00:46.143Z,2.03
2018-08-24T23:03:13.537Z,2.90
2018-08-24T23:05:40.990Z,1.60
2018-08-24T23:08:08.456Z,2.13
2018-08-24T23:10:36.060Z,2.30
2018-08-24T23:13:03.455Z,1.93
2018-08-24T23:15:30.872Z,2.03
2018-08-24T23:17:58.260Z,3.13
2018-08-24T23:20:25.707Z,2.20
2018-08-24T23:22:53.144Z,4.73
2018-08-24T23:25:20.547Z,2.50
2018-08-24T23:27:47.988Z,2.23
2018-08-24T23:30:15.424Z,3.20
2018-08-24T23:32:42.953Z,2.47
2018-08-24T23:35:10.412Z,2.77
2018-08-24T23:37:37.847Z,2.30
2018-08-24T23:40:05.869Z,2.00
2018-08-24T23:42:33.295Z,2.03
2018-08-24T23:45:00.735Z,1.70
2018-08-24T23:47:28.150Z,4.33
2018-08-24T23:49:55.570Z,3.27
2018-08-24T23:52:23.020Z,2.30
2018-08-24T23:54:50.455Z,2.37
2018-08-24T23:57:17.911Z,2.10
2018-08-24T23:59:45.309Z,3.00
